Dursley, United Kingdom
Current Conditions -  °F | °C
As of 12:20 PM on Monday 20 Oct 2014 (Local Time) from EGBJ Reporting Station
Scattered Clouds Scattered Clouds  
Wind Chill: 61°   Ceiling: Unl
Heat Index: 61°   Visibility: 6mi
Dew Point: 54°   Wind: 13mph
Humidity: 77%   Direction: 210°SSW
Pressure: 29.97"   Gusts: NA
Location:  51.68°N, 2.35°W
Report Text: EGBJ 201120Z 21011KT 9999 FEW013 SCT028 16/12 Q1015
Loading
Personal Weather Stations






























Interactive Weather Map
Tropical Storm Tracking
New forecast layout! Learn more

10-Day Weather Forecast

Advertisements
Track Severe Weather on mobile